sensor_id;sensor_type;location;lat;lon;timestamp;pressure;altitude;pressure_sealevel;temperature;humidity
59063;BME280;44851;45.648;9.004;2022-07-30T00:00:54;98890.75;;;20.58;69.74
59063;BME280;44851;45.648;9.004;2022-07-30T00:03:19;98890.13;;;20.56;69.80
59063;BME280;44851;45.648;9.004;2022-07-30T00:05:45;98893.22;;;20.53;70.32
59063;BME280;44851;45.648;9.004;2022-07-30T00:08:10;98885.88;;;20.48;69.62
59063;BME280;44851;45.648;9.004;2022-07-30T00:10:36;98873.69;;;20.47;70.65
59063;BME280;44851;45.648;9.004;2022-07-30T00:13:01;98872.44;;;20.50;70.07
59063;BME280;44851;45.648;9.004;2022-07-30T00:15:26;98878.34;;;20.52;69.80
59063;BME280;44851;45.648;9.004;2022-07-30T00:17:52;98874.09;;;20.38;70.46
59063;BME280;44851;45.648;9.004;2022-07-30T00:20:17;98875.31;;;20.42;69.95
59063;BME280;44851;45.648;9.004;2022-07-30T00:22:43;98880.81;;;20.47;70.03
59063;BME280;44851;45.648;9.004;2022-07-30T00:25:08;98871.25;;;20.46;70.11
59063;BME280;44851;45.648;9.004;2022-07-30T00:27:34;98881.00;;;20.39;70.23
59063;BME280;44851;45.648;9.004;2022-07-30T00:30:00;98875.31;;;20.42;70.52
59063;BME280;44851;45.648;9.004;2022-07-30T00:32:26;98872.44;;;20.43;70.39
59063;BME280;44851;45.648;9.004;2022-07-30T00:34:51;98886.09;;;20.47;69.65
59063;BME280;44851;45.648;9.004;2022-07-30T00:37:17;98878.78;;;20.42;70.31
59063;BME280;44851;45.648;9.004;2022-07-30T00:39:42;98880.19;;;20.38;70.50
59063;BME280;44851;45.648;9.004;2022-07-30T00:42:07;98882.41;;;20.28;70.17
59063;BME280;44851;45.648;9.004;2022-07-30T00:44:33;98874.25;;;20.30;70.45
59063;BME280;44851;45.648;9.004;2022-07-30T00:46:58;98876.50;;;20.33;70.32
59063;BME280;44851;45.648;9.004;2022-07-30T00:49:24;98876.91;;;20.23;70.39
59063;BME280;44851;45.648;9.004;2022-07-30T00:51:51;98877.34;;;20.27;69.97
59063;BME280;44851;45.648;9.004;2022-07-30T00:54:16;98871.63;;;20.23;70.06
59063;BME280;44851;45.648;9.004;2022-07-30T00:56:42;98876.09;;;20.22;70.23
59063;BME280;44851;45.648;9.004;2022-07-30T00:59:08;98878.53;;;20.24;70.20
59063;BME280;44851;45.648;9.004;2022-07-30T01:01:34;98878.94;;;20.08;70.12
59063;BME280;44851;45.648;9.004;2022-07-30T01:04:00;98880.59;;;20.09;70.46
59063;BME280;44851;45.648;9.004;2022-07-30T01:06:25;98876.72;;;20.11;70.13
59063;BME280;44851;45.648;9.004;2022-07-30T01:08:51;98879.56;;;20.16;70.00
59063;BME280;44851;45.648;9.004;2022-07-30T01:11:17;98886.72;;;20.09;70.02
59063;BME280;44851;45.648;9.004;2022-07-30T01:13:43;98887.91;;;20.00;70.57
59063;BME280;44851;45.648;9.004;2022-07-30T01:16:09;98883.03;;;20.04;70.68
59063;BME280;44851;45.648;9.004;2022-07-30T01:18:35;98886.28;;;20.06;70.32
59063;BME280;44851;45.648;9.004;2022-07-30T01:21:28;98883.84;;;20.04;70.54
59063;BME280;44851;45.648;9.004;2022-07-30T01:23:59;98880.19;;;20.05;70.32
59063;BME280;44851;45.648;9.004;2022-07-30T01:26:27;98880.81;;;19.94;69.94
59063;BME280;44851;45.648;9.004;2022-07-30T01:28:54;98884.03;;;19.96;70.29
59063;BME280;44851;45.648;9.004;2022-07-30T01:31:20;98885.06;;;19.88;70.51
59063;BME280;44851;45.648;9.004;2022-07-30T01:33:48;98887.31;;;19.98;69.82
59063;BME280;44851;45.648;9.004;2022-07-30T01:36:19;98886.69;;;19.96;69.82
59063;BME280;44851;45.648;9.004;2022-07-30T01:38:47;98887.91;;;19.87;70.26
59063;BME280;44851;45.648;9.004;2022-07-30T01:41:14;98882.41;;;19.95;69.36
59063;BME280;44851;45.648;9.004;2022-07-30T01:43:43;98879.16;;;19.86;69.96
59063;BME280;44851;45.648;9.004;2022-07-30T01:46:09;98874.47;;;19.82;69.66
59063;BME280;44851;45.648;9.004;2022-07-30T01:48:38;98867.16;;;19.84;69.31
59063;BME280;44851;45.648;9.004;2022-07-30T01:51:05;98867.13;;;19.70;69.97
59063;BME280;44851;45.648;9.004;2022-07-30T01:53:33;98862.03;;;19.76;69.84
59063;BME280;44851;45.648;9.004;2022-07-30T01:56:01;98859.41;;;19.76;69.24
59063;BME280;44851;45.648;9.004;2022-07-30T01:58:30;98862.88;;;19.69;69.44
59063;BME280;44851;45.648;9.004;2022-07-30T02:00:56;98859.41;;;19.69;70.16
59063;BME280;44851;45.648;9.004;2022-07-30T02:03:24;98861.84;;;19.70;69.76
59063;BME280;44851;45.648;9.004;2022-07-30T02:05:53;98865.94;;;19.66;69.62
59063;BME280;44851;45.648;9.004;2022-07-30T02:08:35;98856.97;;;19.74;69.71
59063;BME280;44851;45.648;9.004;2022-07-30T02:11:14;98855.34;;;19.66;70.05
59063;BME280;44851;45.648;9.004;2022-07-30T02:14:02;98843.53;;;19.62;70.23
59063;BME280;44851;45.648;9.004;2022-07-30T02:16:35;98848.81;;;19.62;69.69
59063;BME280;44851;45.648;9.004;2022-07-30T02:19:05;98846.41;;;19.67;69.96
59063;BME280;44851;45.648;9.004;2022-07-30T02:21:36;98854.47;;;19.59;70.04
59063;BME280;44851;45.648;9.004;2022-07-30T02:24:05;98840.88;;;19.56;70.07
59063;BME280;44851;45.648;9.004;2022-07-30T02:26:34;98843.91;;;19.59;70.03
59063;BME280;44851;45.648;9.004;2022-07-30T02:29:01;98844.31;;;19.56;70.09
59063;BME280;44851;45.648;9.004;2022-07-30T02:31:28;98835.31;;;19.44;70.10
59063;BME280;44851;45.648;9.004;2022-07-30T02:33:58;98839.63;;;19.58;69.22
59063;BME280;44851;45.648;9.004;2022-07-30T02:36:25;98830.25;;;19.42;69.52
59063;BME280;44851;45.648;9.004;2022-07-30T02:38:51;98831.44;;;19.33;69.40
59063;BME280;44851;45.648;9.004;2022-07-30T02:41:19;98830.47;;;19.41;68.67
59063;BME280;44851;45.648;9.004;2022-07-30T02:43:47;98834.94;;;19.47;68.88
59063;BME280;44851;45.648;9.004;2022-07-30T02:46:15;98824.75;;;19.37;69.16
59063;BME280;44851;45.648;9.004;2022-07-30T02:48:43;98825.75;;;19.30;69.53
59063;BME280;44851;45.648;9.004;2022-07-30T02:51:15;98824.94;;;19.29;69.94
59063;BME280;44851;45.648;9.004;2022-07-30T02:53:44;98811.75;;;19.36;69.98
59063;BME280;44851;45.648;9.004;2022-07-30T02:56:11;98808.69;;;19.39;69.04
59063;BME280;44851;45.648;9.004;2022-07-30T02:58:38;98806.63;;;19.28;69.61
59063;BME280;44851;45.648;9.004;2022-07-30T03:01:05;98816.59;;;19.32;69.52
59063;BME280;44851;45.648;9.004;2022-07-30T03:03:33;98814.97;;;19.25;70.21
59063;BME280;44851;45.648;9.004;2022-07-30T03:05:59;98802.78;;;19.24;70.15
59063;BME280;44851;45.648;9.004;2022-07-30T03:08:27;98808.06;;;19.24;70.22
59063;BME280;44851;45.648;9.004;2022-07-30T03:10:55;98802.78;;;19.24;69.99
59063;BME280;44851;45.648;9.004;2022-07-30T03:13:22;98804.41;;;19.18;69.52
59063;BME280;44851;45.648;9.004;2022-07-30T03:15:49;98805.97;;;19.12;70.14
59063;BME280;44851;45.648;9.004;2022-07-30T03:18:17;98811.47;;;19.17;69.70
59063;BME280;44851;45.648;9.004;2022-07-30T03:20:46;98800.28;;;19.02;70.02
59063;BME280;44851;45.648;9.004;2022-07-30T03:23:15;98803.16;;;19.14;69.95
59063;BME280;44851;45.648;9.004;2022-07-30T03:25:44;98796.22;;;19.06;70.41
59063;BME280;44851;45.648;9.004;2022-07-30T03:28:13;98800.69;;;19.12;69.87
59063;BME280;44851;45.648;9.004;2022-07-30T03:30:39;98805.00;;;19.13;70.38
59063;BME280;44851;45.648;9.004;2022-07-30T03:33:05;98802.53;;;19.05;70.53
59063;BME280;44851;45.648;9.004;2022-07-30T03:35:31;98791.72;;;19.00;70.20
59063;BME280;44851;45.648;9.004;2022-07-30T03:37:57;98790.53;;;19.03;70.29
59063;BME280;44851;45.648;9.004;2022-07-30T03:40:23;98790.09;;;18.99;70.22
59063;BME280;44851;45.648;9.004;2022-07-30T03:42:49;98791.28;;;18.90;70.44
59063;BME280;44851;45.648;9.004;2022-07-30T03:45:16;98793.34;;;19.01;70.30
59063;BME280;44851;45.648;9.004;2022-07-30T03:47:43;98784.38;;;18.89;70.08
59063;BME280;44851;45.648;9.004;2022-07-30T03:50:09;98784.81;;;18.92;70.45
59063;BME280;44851;45.648;9.004;2022-07-30T03:52:38;98786.88;;;18.97;70.25
59063;BME280;44851;45.648;9.004;2022-07-30T03:55:08;98771.72;;;18.78;70.08
59063;BME280;44851;45.648;9.004;2022-07-30T03:57:34;98765.69;;;18.84;70.14
59063;BME280;44851;45.648;9.004;2022-07-30T04:00:00;98774.63;;;18.89;69.70
59063;BME280;44851;45.648;9.004;2022-07-30T04:02:26;98768.53;;;18.89;68.93
59063;BME280;44851;45.648;9.004;2022-07-30T04:04:52;98774.63;;;18.89;69.71
59063;BME280;44851;45.648;9.004;2022-07-30T04:07:17;98774.03;;;18.94;69.96
59063;BME280;44851;45.648;9.004;2022-07-30T04:09:42;98781.94;;;18.81;69.26
59063;BME280;44851;45.648;9.004;2022-07-30T04:12:08;98782.13;;;18.86;69.86
59063;BME280;44851;45.648;9.004;2022-07-30T04:14:42;98778.72;;;18.92;69.82
59063;BME280;44851;45.648;9.004;2022-07-30T04:17:23;98779.47;;;18.86;69.63
59063;BME280;44851;45.648;9.004;2022-07-30T04:19:54;98775.38;;;18.77;69.92
59063;BME280;44851;45.648;9.004;2022-07-30T04:22:28;98782.66;;;18.75;69.73
59063;BME280;44851;45.648;9.004;2022-07-30T04:24:55;98785.50;;;18.66;70.14
59063;BME280;44851;45.648;9.004;2022-07-30T04:27:22;98788.34;;;18.72;70.12
59063;BME280;44851;45.648;9.004;2022-07-30T04:29:50;98786.75;;;18.77;69.65
59063;BME280;44851;45.648;9.004;2022-07-30T04:32:16;98792.03;;;18.71;70.27
59063;BME280;44851;45.648;9.004;2022-07-30T04:34:50;98791.22;;;18.77;69.34
59063;BME280;44851;45.648;9.004;2022-07-30T04:37:18;98801.94;;;18.68;69.58
59063;BME280;44851;45.648;9.004;2022-07-30T04:39:44;98801.72;;;18.63;69.28
59063;BME280;44851;45.648;9.004;2022-07-30T04:42:09;98805.78;;;18.59;68.48
59063;BME280;44851;45.648;9.004;2022-07-30T04:44:35;98810.44;;;18.64;68.08
59063;BME280;44851;45.648;9.004;2022-07-30T04:47:01;98807.78;;;18.57;68.19
59063;BME280;44851;45.648;9.004;2022-07-30T04:49:27;98808.22;;;18.61;67.73
59063;BME280;44851;45.648;9.004;2022-07-30T04:51:53;98811.91;;;18.73;66.40
59063;BME280;44851;45.648;9.004;2022-07-30T04:54:20;98812.13;;;18.72;66.85
59063;BME280;44851;45.648;9.004;2022-07-30T04:56:47;98829.72;;;18.64;67.16
59063;BME280;44851;45.648;9.004;2022-07-30T04:59:14;98835.47;;;18.75;67.67
59063;BME280;44851;45.648;9.004;2022-07-30T05:01:40;98831.31;;;18.52;67.26
59063;BME280;44851;45.648;9.004;2022-07-30T05:04:08;98839.47;;;18.64;67.53
59063;BME280;44851;45.648;9.004;2022-07-30T05:06:35;98838.28;;;18.66;66.65
59063;BME280;44851;45.648;9.004;2022-07-30T05:09:02;98841.25;;;18.50;66.39
59063;BME280;44851;45.648;9.004;2022-07-30T05:11:28;98832.94;;;18.53;67.62
59063;BME280;44851;45.648;9.004;2022-07-30T05:13:53;98831.72;;;18.49;67.96
59063;BME280;44851;45.648;9.004;2022-07-30T05:16:18;98834.81;;;18.59;67.89
59063;BME280;44851;45.648;9.004;2022-07-30T05:18:44;98841.41;;;18.42;67.46
59063;BME280;44851;45.648;9.004;2022-07-30T05:21:09;98841.94;;;18.65;67.85
59063;BME280;44851;45.648;9.004;2022-07-30T05:23:35;98839.91;;;18.67;68.60
59063;BME280;44851;45.648;9.004;2022-07-30T05:26:00;98847.22;;;18.65;68.60
59063;BME280;44851;45.648;9.004;2022-07-30T05:28:25;98854.28;;;18.58;68.90
59063;BME280;44851;45.648;9.004;2022-07-30T05:30:54;98855.38;;;18.71;69.18
59063;BME280;44851;45.648;9.004;2022-07-30T05:33:20;98847.69;;;18.76;68.85
59063;BME280;44851;45.648;9.004;2022-07-30T05:35:47;98859.44;;;18.73;69.36
59063;BME280;44851;45.648;9.004;2022-07-30T05:38:12;98862.28;;;18.72;69.51
59063;BME280;44851;45.648;9.004;2022-07-30T05:40:38;98863.81;;;18.87;69.55
59063;BME280;44851;45.648;9.004;2022-07-30T05:43:04;98856.59;;;18.75;70.07
59063;BME280;44851;45.648;9.004;2022-07-30T05:45:29;98857.25;;;18.77;70.31
59063;BME280;44851;45.648;9.004;2022-07-30T05:47:55;98863.13;;;18.79;70.56
59063;BME280;44851;45.648;9.004;2022-07-30T05:50:20;98859.13;;;18.83;69.71
59063;BME280;44851;45.648;9.004;2022-07-30T05:52:45;98865.69;;;19.00;70.21
59063;BME280;44851;45.648;9.004;2022-07-30T05:55:11;98864.50;;;19.09;70.25
59063;BME280;44851;45.648;9.004;2022-07-30T05:57:36;98870.97;;;19.00;70.93
59063;BME280;44851;45.648;9.004;2022-07-30T06:00:05;98875.44;;;19.00;70.28
59063;BME280;44851;45.648;9.004;2022-07-30T06:02:31;98871.75;;;18.94;70.92
59063;BME280;44851;45.648;9.004;2022-07-30T06:04:57;98882.19;;;19.02;70.99
59063;BME280;44851;45.648;9.004;2022-07-30T06:07:22;98879.34;;;19.10;70.60
59063;BME280;44851;45.648;9.004;2022-07-30T06:09:47;98875.47;;;19.06;70.80
59063;BME280;44851;45.648;9.004;2022-07-30T06:12:13;98876.94;;;19.15;70.76
59063;BME280;44851;45.648;9.004;2022-07-30T06:14:38;98882.06;;;19.24;70.90
59063;BME280;44851;45.648;9.004;2022-07-30T06:17:03;98878.84;;;19.35;70.85
59063;BME280;44851;45.648;9.004;2022-07-30T06:19:29;98885.75;;;19.36;71.73
59063;BME280;44851;45.648;9.004;2022-07-30T06:21:54;98890.88;;;19.51;71.33
59063;BME280;44851;45.648;9.004;2022-07-30T06:24:20;98886.66;;;19.76;69.63
59063;BME280;44851;45.648;9.004;2022-07-30T06:26:45;98896.25;;;19.97;69.36
59063;BME280;44851;45.648;9.004;2022-07-30T06:29:11;98890.78;;;20.05;69.58
59063;BME280;44851;45.648;9.004;2022-07-30T06:31:36;98885.25;;;20.33;68.37
59063;BME280;44851;45.648;9.004;2022-07-30T06:34:04;98891.38;;;20.34;69.22
59063;BME280;44851;45.648;9.004;2022-07-30T06:36:29;98898.09;;;20.63;68.04
59063;BME280;44851;45.648;9.004;2022-07-30T06:38:54;98909.84;;;20.87;68.25
59063;BME280;44851;45.648;9.004;2022-07-30T06:41:20;98907.75;;;21.02;66.81
59063;BME280;44851;45.648;9.004;2022-07-30T06:43:45;98891.84;;;21.15;65.69
59063;BME280;44851;45.648;9.004;2022-07-30T06:46:10;98900.31;;;21.31;66.78
59063;BME280;44851;45.648;9.004;2022-07-30T06:48:36;98905.06;;;21.60;65.65
59063;BME280;44851;45.648;9.004;2022-07-30T06:51:01;98905.44;;;21.70;64.51
59063;BME280;44851;45.648;9.004;2022-07-30T06:53:27;98901.91;;;21.76;65.22
59063;BME280;44851;45.648;9.004;2022-07-30T06:55:52;98904.41;;;22.03;64.11
59063;BME280;44851;45.648;9.004;2022-07-30T06:58:19;98904.75;;;22.13;63.35
59063;BME280;44851;45.648;9.004;2022-07-30T07:00:44;98900.25;;;22.14;63.12
59063;BME280;44851;45.648;9.004;2022-07-30T07:03:10;98903.69;;;22.14;64.69
59063;BME280;44851;45.648;9.004;2022-07-30T07:05:36;98900.06;;;22.33;63.17
59063;BME280;44851;45.648;9.004;2022-07-30T07:08:01;98902.75;;;22.52;61.90
59063;BME280;44851;45.648;9.004;2022-07-30T07:10:27;98903.78;;;22.32;62.19
59063;BME280;44851;45.648;9.004;2022-07-30T07:12:53;98902.56;;;22.28;62.70
59063;BME280;44851;45.648;9.004;2022-07-30T07:15:19;98912.31;;;22.35;62.01
59063;BME280;44851;45.648;9.004;2022-07-30T07:17:44;98899.06;;;22.53;62.13
59063;BME280;44851;45.648;9.004;2022-07-30T07:20:10;98903.78;;;22.76;60.67
59063;BME280;44851;45.648;9.004;2022-07-30T07:22:35;98898.41;;;22.64;59.28
59063;BME280;44851;45.648;9.004;2022-07-30T07:25:01;98907.09;;;22.71;60.87
59063;BME280;44851;45.648;9.004;2022-07-30T07:27:26;98904.28;;;22.66;58.89
59063;BME280;44851;45.648;9.004;2022-07-30T07:29:52;98894.84;;;22.89;58.69
59063;BME280;44851;45.648;9.004;2022-07-30T07:32:17;98904.06;;;22.43;60.81
59063;BME280;44851;45.648;9.004;2022-07-30T07:34:42;98898.66;;;22.56;58.71
59063;BME280;44851;45.648;9.004;2022-07-30T07:37:08;98904.72;;;22.63;59.42
59063;BME280;44851;45.648;9.004;2022-07-30T07:39:33;98899.19;;;22.40;61.45
59063;BME280;44851;45.648;9.004;2022-07-30T07:41:58;98895.34;;;22.11;62.45
59063;BME280;44851;45.648;9.004;2022-07-30T07:44:24;98897.41;;;22.09;61.02
59063;BME280;44851;45.648;9.004;2022-07-30T07:46:49;98902.41;;;22.23;61.50
59063;BME280;44851;45.648;9.004;2022-07-30T07:49:15;98901.25;;;22.63;60.78
59063;BME280;44851;45.648;9.004;2022-07-30T07:51:40;98898.53;;;22.69;60.47
59063;BME280;44851;45.648;9.004;2022-07-30T07:54:05;98904.59;;;22.76;60.16
59063;BME280;44851;45.648;9.004;2022-07-30T07:56:31;98896.78;;;22.81;60.46
59063;BME280;44851;45.648;9.004;2022-07-30T07:58:56;98898.09;;;22.72;58.80
59063;BME280;44851;45.648;9.004;2022-07-30T08:01:22;98904.75;;;22.81;57.64
59063;BME280;44851;45.648;9.004;2022-07-30T08:03:47;98905.63;;;22.94;58.06
59063;BME280;44851;45.648;9.004;2022-07-30T08:06:13;98905.63;;;23.12;55.88
59063;BME280;44851;45.648;9.004;2022-07-30T08:08:38;98901.03;;;23.38;56.21
59063;BME280;44851;45.648;9.004;2022-07-30T08:11:04;98909.91;;;23.13;56.03
59063;BME280;44851;45.648;9.004;2022-07-30T08:13:30;98901.16;;;23.43;56.12
59063;BME280;44851;45.648;9.004;2022-07-30T08:15:57;98897.16;;;23.52;57.23
59063;BME280;44851;45.648;9.004;2022-07-30T08:18:22;98907.09;;;23.08;58.26
59063;BME280;44851;45.648;9.004;2022-07-30T08:20:48;98904.63;;;23.73;53.67
59063;BME280;44851;45.648;9.004;2022-07-30T08:23:14;98904.31;;;23.51;55.88
59063;BME280;44851;45.648;9.004;2022-07-30T08:25:39;98897.69;;;23.72;54.76
59063;BME280;44851;45.648;9.004;2022-07-30T08:28:05;98908.41;;;23.96;54.43
59063;BME280;44851;45.648;9.004;2022-07-30T08:30:31;98909.03;;;24.33;54.99
59063;BME280;44851;45.648;9.004;2022-07-30T08:32:56;98914.25;;;24.39;54.98
59063;BME280;44851;45.648;9.004;2022-07-30T08:35:21;98903.38;;;24.41;54.37
59063;BME280;44851;45.648;9.004;2022-07-30T08:37:47;98905.69;;;24.61;52.99
59063;BME280;44851;45.648;9.004;2022-07-30T08:40:12;98902.53;;;24.99;51.88
59063;BME280;44851;45.648;9.004;2022-07-30T08:42:38;98914.00;;;25.00;53.02
59063;BME280;44851;45.648;9.004;2022-07-30T08:45:04;98902.19;;;24.96;50.60
59063;BME280;44851;45.648;9.004;2022-07-30T08:47:32;98906.88;;;25.29;51.85
59063;BME280;44851;45.648;9.004;2022-07-30T08:49:58;98910.16;;;25.48;49.54
59063;BME280;44851;45.648;9.004;2022-07-30T08:52:30;98911.16;;;25.58;48.74
59063;BME280;44851;45.648;9.004;2022-07-30T08:54:56;98909.69;;;25.51;50.16
59063;BME280;44851;45.648;9.004;2022-07-30T08:57:22;98907.13;;;25.84;49.21
59063;BME280;44851;45.648;9.004;2022-07-30T08:59:47;98916.41;;;25.99;49.80
59063;BME280;44851;45.648;9.004;2022-07-30T09:02:12;98919.50;;;25.90;48.09
59063;BME280;44851;45.648;9.004;2022-07-30T09:04:38;98910.69;;;26.07;46.68
59063;BME280;44851;45.648;9.004;2022-07-30T09:07:04;98911.84;;;26.11;48.57
59063;BME280;44851;45.648;9.004;2022-07-30T09:09:29;98904.94;;;26.32;47.05
59063;BME280;44851;45.648;9.004;2022-07-30T09:11:54;98905.75;;;26.49;44.94
59063;BME280;44851;45.648;9.004;2022-07-30T09:14:20;98908.31;;;26.61;44.06
59063;BME280;44851;45.648;9.004;2022-07-30T09:16:45;98911.97;;;26.93;48.64
59063;BME280;44851;45.648;9.004;2022-07-30T09:19:15;98900.78;;;26.96;45.49
59063;BME280;44851;45.648;9.004;2022-07-30T09:21:40;98904.75;;;27.16;46.00
59063;BME280;44851;45.648;9.004;2022-07-30T09:24:08;98900.44;;;27.37;42.67
59063;BME280;44851;45.648;9.004;2022-07-30T09:29:21;98903.47;;;27.18;43.61
59063;BME280;44851;45.648;9.004;2022-07-30T09:32:00;98904.53;;;27.17;42.36
59063;BME280;44851;45.648;9.004;2022-07-30T09:34:32;98901.66;;;27.24;43.51
59063;BME280;44851;45.648;9.004;2022-07-30T09:37:00;98899.25;;;27.49;43.99
59063;BME280;44851;45.648;9.004;2022-07-30T09:39:35;98898.38;;;27.66;43.69
59063;BME280;44851;45.648;9.004;2022-07-30T09:42:02;98909.38;;;27.69;45.13
59063;BME280;44851;45.648;9.004;2022-07-30T09:44:29;98910.75;;;27.72;42.91
59063;BME280;44851;45.648;9.004;2022-07-30T09:46:55;98905.00;;;27.90;43.13
59063;BME280;44851;45.648;9.004;2022-07-30T09:49:23;98907.84;;;28.11;42.59
59063;BME280;44851;45.648;9.004;2022-07-30T09:51:50;98907.59;;;28.12;41.26
59063;BME280;44851;45.648;9.004;2022-07-30T09:54:16;98904.25;;;28.27;40.72
59063;BME280;44851;45.648;9.004;2022-07-30T09:56:42;98899.84;;;28.48;40.74
59063;BME280;44851;45.648;9.004;2022-07-30T09:59:26;98893.19;;;28.61;39.46
59063;BME280;44851;45.648;9.004;2022-07-30T10:01:53;98903.00;;;28.87;41.63
59063;BME280;44851;45.648;9.004;2022-07-30T10:04:26;98898.56;;;28.56;34.99
59063;BME280;44851;45.648;9.004;2022-07-30T10:06:52;98891.78;;;28.95;36.88
59063;BME280;44851;45.648;9.004;2022-07-30T10:09:29;98886.41;;;28.95;36.92
59063;BME280;44851;45.648;9.004;2022-07-30T10:11:57;98884.31;;;29.08;36.71
59063;BME280;44851;45.648;9.004;2022-07-30T10:14:28;98888.13;;;29.27;37.90
59063;BME280;44851;45.648;9.004;2022-07-30T10:16:53;98889.19;;;29.16;40.49
59063;BME280;44851;45.648;9.004;2022-07-30T10:19:20;98888.41;;;29.25;37.88
59063;BME280;44851;45.648;9.004;2022-07-30T10:21:48;98888.72;;;29.39;36.88
59063;BME280;44851;45.648;9.004;2022-07-30T10:24:16;98888.22;;;29.42;37.48
59063;BME280;44851;45.648;9.004;2022-07-30T10:26:43;98885.22;;;29.34;36.66
59063;BME280;44851;45.648;9.004;2022-07-30T10:29:08;98882.03;;;29.47;35.09
59063;BME280;44851;45.648;9.004;2022-07-30T10:31:34;98873.72;;;29.53;34.32
59063;BME280;44851;45.648;9.004;2022-07-30T10:34:00;98865.72;;;29.89;35.04
59063;BME280;44851;45.648;9.004;2022-07-30T10:36:26;98868.91;;;30.17;36.31
59063;BME280;44851;45.648;9.004;2022-07-30T10:38:53;98858.41;;;30.15;32.05
59063;BME280;44851;45.648;9.004;2022-07-30T10:41:26;98861.38;;;30.24;32.45
59063;BME280;44851;45.648;9.004;2022-07-30T10:49:15;98859.19;;;30.41;34.13
59063;BME280;44851;45.648;9.004;2022-07-30T10:51:52;98858.31;;;30.66;36.70
59063;BME280;44851;45.648;9.004;2022-07-30T10:54:39;98851.59;;;30.69;36.47
59063;BME280;44851;45.648;9.004;2022-07-30T10:57:18;98850.25;;;30.66;35.76
59063;BME280;44851;45.648;9.004;2022-07-30T11:02:21;98855.25;;;30.88;33.21
59063;BME280;44851;45.648;9.004;2022-07-30T11:04:47;98845.84;;;30.96;32.77
59063;BME280;44851;45.648;9.004;2022-07-30T11:09:58;98847.88;;;31.19;33.09
59063;BME280;44851;45.648;9.004;2022-07-30T11:15:16;98846.19;;;31.33;29.70
59063;BME280;44851;45.648;9.004;2022-07-30T11:18:07;98843.44;;;31.38;28.82
59063;BME280;44851;45.648;9.004;2022-07-30T11:20:34;98836.59;;;31.56;29.01
59063;BME280;44851;45.648;9.004;2022-07-30T11:25:43;98832.69;;;31.73;28.17
59063;BME280;44851;45.648;9.004;2022-07-30T11:28:36;98834.47;;;31.87;28.38
59063;BME280;44851;45.648;9.004;2022-07-30T11:31:03;98835.91;;;31.75;31.84
59063;BME280;44851;45.648;9.004;2022-07-30T11:33:29;98832.59;;;31.83;33.84
59063;BME280;44851;45.648;9.004;2022-07-30T11:36:09;98837.75;;;31.79;31.10
59063;BME280;44851;45.648;9.004;2022-07-30T11:38:57;98824.28;;;31.79;32.37
59063;BME280;44851;45.648;9.004;2022-07-30T11:41:23;98834.09;;;31.26;33.26
59063;BME280;44851;45.648;9.004;2022-07-30T11:44:24;98835.38;;;31.44;32.43
59063;BME280;44851;45.648;9.004;2022-07-30T11:46:49;98837.44;;;31.86;30.23
59063;BME280;44851;45.648;9.004;2022-07-30T11:49:15;98824.09;;;31.71;30.85
59063;BME280;44851;45.648;9.004;2022-07-30T11:51:43;98821.09;;;32.06;30.02
59063;BME280;44851;45.648;9.004;2022-07-30T11:54:08;98826.22;;;32.32;29.10
59063;BME280;44851;45.648;9.004;2022-07-30T11:56:53;98826.28;;;32.27;27.81
59063;BME280;44851;45.648;9.004;2022-07-30T11:59:19;98825.00;;;32.43;28.67
59063;BME280;44851;45.648;9.004;2022-07-30T12:01:51;98830.03;;;32.55;27.53
59063;BME280;44851;45.648;9.004;2022-07-30T12:04:17;98835.59;;;32.63;27.56
59063;BME280;44851;45.648;9.004;2022-07-30T12:06:44;98825.00;;;32.43;25.64
59063;BME280;44851;45.648;9.004;2022-07-30T12:09:10;98825.97;;;32.57;32.37
59063;BME280;44851;45.648;9.004;2022-07-30T12:11:35;98827.75;;;32.38;32.49
59063;BME280;44851;45.648;9.004;2022-07-30T12:14:02;98824.56;;;32.36;31.80
59063;BME280;44851;45.648;9.004;2022-07-30T12:16:29;98831.16;;;32.25;31.47
59063;BME280;44851;45.648;9.004;2022-07-30T12:19:00;98820.00;;;32.60;30.02
59063;BME280;44851;45.648;9.004;2022-07-30T12:21:25;98814.00;;;32.63;30.81
59063;BME280;44851;45.648;9.004;2022-07-30T12:23:59;98820.19;;;32.88;28.26
59063;BME280;44851;45.648;9.004;2022-07-30T12:26:27;98821.53;;;33.09;26.95
59063;BME280;44851;45.648;9.004;2022-07-30T12:28:54;98826.03;;;32.95;30.34
59063;BME280;44851;45.648;9.004;2022-07-30T12:31:20;98831.16;;;33.15;29.94
59063;BME280;44851;45.648;9.004;2022-07-30T12:33:46;98829.72;;;32.80;31.89
59063;BME280;44851;45.648;9.004;2022-07-30T12:36:23;98826.31;;;32.22;32.13
59063;BME280;44851;45.648;9.004;2022-07-30T12:38:49;98819.84;;;32.71;31.64
59063;BME280;44851;45.648;9.004;2022-07-30T12:41:17;98823.19;;;32.62;31.53
59063;BME280;44851;45.648;9.004;2022-07-30T12:43:43;98821.97;;;32.74;31.12
59063;BME280;44851;45.648;9.004;2022-07-30T12:46:09;98822.41;;;32.33;31.87
59063;BME280;44851;45.648;9.004;2022-07-30T12:48:35;98816.56;;;32.74;30.10
59063;BME280;44851;45.648;9.004;2022-07-30T12:51:08;98813.16;;;32.87;28.98
59063;BME280;44851;45.648;9.004;2022-07-30T12:53:33;98811.00;;;33.08;29.64
59063;BME280;44851;45.648;9.004;2022-07-30T12:56:16;98804.50;;;33.28;27.08
59063;BME280;44851;45.648;9.004;2022-07-30T12:58:43;98798.44;;;33.36;27.74
59063;BME280;44851;45.648;9.004;2022-07-30T13:01:10;98790.47;;;33.44;27.64
59063;BME280;44851;45.648;9.004;2022-07-30T13:03:36;98799.38;;;33.45;25.23
59063;BME280;44851;45.648;9.004;2022-07-30T13:06:19;98796.84;;;33.16;26.20
59063;BME280;44851;45.648;9.004;2022-07-30T13:08:48;98794.16;;;33.16;29.13
59063;BME280;44851;45.648;9.004;2022-07-30T13:11:14;98802.44;;;33.38;22.88
59063;BME280;44851;45.648;9.004;2022-07-30T13:13:40;98794.81;;;33.92;22.43
59063;BME280;44851;45.648;9.004;2022-07-30T13:16:06;98794.09;;;33.86;19.70
59063;BME280;44851;45.648;9.004;2022-07-30T13:18:33;98785.19;;;33.86;17.76
59063;BME280;44851;45.648;9.004;2022-07-30T13:20:59;98776.41;;;34.08;19.38